UDSVT weather

Public forecast

Using degrees Celsius for public forecast. Weather courtesy of forecast.io.

Closest aviation weather report (METAR) to Campo di Volo "I Grifoni"

Closest report is Trieste–Friuli Venezia Giulia Airport, 6.7 nm (12.3 km) SE. Retrieved 2020/08/13 15:50 UTC (18 minutes ago):

LIPQ 131550Z AUTO 20007KT 9999 VCTS NCD 29/22 Q1012

Closest aviation forecast (TAF) to Campo di Volo "I Grifoni"

Closest forecast is Trieste–Friuli Venezia Giulia Airport, 6.7 nm (12.3 km) SE. Retrieved 2020/08/13 12:26 UTC (4 hours ago):

TAF LIPQ 131100Z 1312/1412 VRB05KT 9999 SCT030 PROB40 TEMPO 1315/1320 4000 TSRA